sensor_id;sensor_type;location;lat;lon;timestamp;P1;durP1;ratioP1;P2;durP2;ratioP2
79346;SDS011;68815;48.810;44.482;2024-03-08T00:01:30;22.5;;;20.8;;
79346;SDS011;68815;48.810;44.482;2024-03-08T00:04:32;25;;;23.2;;
79346;SDS011;68815;48.810;44.482;2024-03-08T00:07:34;23;;;21.4;;
79346;SDS011;68815;48.810;44.482;2024-03-08T00:10:36;25.3;;;23.4;;
79346;SDS011;68815;48.810;44.482;2024-03-08T00:13:38;25.9;;;24.1;;
79346;SDS011;68815;48.810;44.482;2024-03-08T00:16:40;24;;;22.2;;
79346;SDS011;68815;48.810;44.482;2024-03-08T00:19:41;24.4;;;22.7;;
79346;SDS011;68815;48.810;44.482;2024-03-08T00:22:43;25.3;;;23.5;;
79346;SDS011;68815;48.810;44.482;2024-03-08T00:25:45;24.6;;;22.9;;
79346;SDS011;68815;48.810;44.482;2024-03-08T00:28:47;25.1;;;23.3;;
79346;SDS011;68815;48.810;44.482;2024-03-08T00:31:49;25.3;;;23.6;;
79346;SDS011;68815;48.810;44.482;2024-03-08T00:34:52;26.3;;;24.2;;
79346;SDS011;68815;48.810;44.482;2024-03-08T00:37:54;25.6;;;23.7;;
79346;SDS011;68815;48.810;44.482;2024-03-08T00:40:55;24.9;;;23.3;;
79346;SDS011;68815;48.810;44.482;2024-03-08T00:43:57;24.6;;;22.8;;
79346;SDS011;68815;48.810;44.482;2024-03-08T00:46:59;25;;;23.2;;
79346;SDS011;68815;48.810;44.482;2024-03-08T00:50:01;28.1;;;26.3;;
79346;SDS011;68815;48.810;44.482;2024-03-08T00:53:03;26.2;;;24.2;;
79346;SDS011;68815;48.810;44.482;2024-03-08T00:56:05;25.4;;;23.8;;
79346;SDS011;68815;48.810;44.482;2024-03-08T00:59:07;28.3;;;26.3;;
79346;SDS011;68815;48.810;44.482;2024-03-08T01:02:09;22.1;;;20.5;;
79346;SDS011;68815;48.810;44.482;2024-03-08T01:05:12;26.4;;;24.6;;
79346;SDS011;68815;48.810;44.482;2024-03-08T01:08:14;27;;;25.1;;
79346;SDS011;68815;48.810;44.482;2024-03-08T01:11:16;27.3;;;25.3;;
79346;SDS011;68815;48.810;44.482;2024-03-08T01:14:18;26.1;;;24.2;;
79346;SDS011;68815;48.810;44.482;2024-03-08T01:17:20;25.2;;;23.4;;
79346;SDS011;68815;48.810;44.482;2024-03-08T01:20:22;25.8;;;24;;
79346;SDS011;68815;48.810;44.482;2024-03-08T01:23:24;25.2;;;23.5;;
79346;SDS011;68815;48.810;44.482;2024-03-08T01:26:26;26.5;;;24.7;;
79346;SDS011;68815;48.810;44.482;2024-03-08T01:29:27;23.8;;;22.1;;
79346;SDS011;68815;48.810;44.482;2024-03-08T01:32:29;25.8;;;24.1;;
79346;SDS011;68815;48.810;44.482;2024-03-08T01:35:31;25.4;;;23.8;;
79346;SDS011;68815;48.810;44.482;2024-03-08T01:38:33;24.7;;;22.9;;
79346;SDS011;68815;48.810;44.482;2024-03-08T01:41:40;25.9;;;24.2;;
79346;SDS011;68815;48.810;44.482;2024-03-08T01:44:42;25.4;;;23.6;;
79346;SDS011;68815;48.810;44.482;2024-03-08T01:47:44;25.3;;;23.6;;
79346;SDS011;68815;48.810;44.482;2024-03-08T01:50:45;24.1;;;22.5;;
79346;SDS011;68815;48.810;44.482;2024-03-08T01:53:48;27.4;;;25.5;;
79346;SDS011;68815;48.810;44.482;2024-03-08T01:56:50;26.3;;;24.5;;
79346;SDS011;68815;48.810;44.482;2024-03-08T01:59:53;26;;;24.1;;
79346;SDS011;68815;48.810;44.482;2024-03-08T02:02:56;27.8;;;25.9;;
79346;SDS011;68815;48.810;44.482;2024-03-08T02:05:59;25.7;;;24.1;;
79346;SDS011;68815;48.810;44.482;2024-03-08T02:09:01;27.7;;;25.8;;
79346;SDS011;68815;48.810;44.482;2024-03-08T02:12:04;26.3;;;24.6;;
79346;SDS011;68815;48.810;44.482;2024-03-08T02:15:06;25.9;;;24;;
79346;SDS011;68815;48.810;44.482;2024-03-08T02:18:08;27.1;;;25.3;;
79346;SDS011;68815;48.810;44.482;2024-03-08T02:21:10;26;;;24.3;;
79346;SDS011;68815;48.810;44.482;2024-03-08T02:24:33;27.6;;;25.8;;
79346;SDS011;68815;48.810;44.482;2024-03-08T02:27:36;26.5;;;24.8;;
79346;SDS011;68815;48.810;44.482;2024-03-08T02:30:38;28.2;;;26.4;;
79346;SDS011;68815;48.810;44.482;2024-03-08T02:33:40;25.5;;;23.7;;
79346;SDS011;68815;48.810;44.482;2024-03-08T02:36:41;24.8;;;23;;
79346;SDS011;68815;48.810;44.482;2024-03-08T02:39:43;27.2;;;25.4;;
79346;SDS011;68815;48.810;44.482;2024-03-08T02:42:45;25.1;;;23.5;;
79346;SDS011;68815;48.810;44.482;2024-03-08T02:45:47;23.7;;;22.1;;
79346;SDS011;68815;48.810;44.482;2024-03-08T02:48:49;25.7;;;24;;
79346;SDS011;68815;48.810;44.482;2024-03-08T02:51:51;24.1;;;22.4;;
79346;SDS011;68815;48.810;44.482;2024-03-08T02:54:52;27.2;;;25.4;;
79346;SDS011;68815;48.810;44.482;2024-03-08T02:57:55;25.6;;;23.8;;
79346;SDS011;68815;48.810;44.482;2024-03-08T03:00:57;25.5;;;23.2;;
79346;SDS011;68815;48.810;44.482;2024-03-08T03:03:59;26.9;;;25.3;;
79346;SDS011;68815;48.810;44.482;2024-03-08T03:07:00;28.2;;;26.2;;
79346;SDS011;68815;48.810;44.482;2024-03-08T03:10:03;27.9;;;26.1;;
79346;SDS011;68815;48.810;44.482;2024-03-08T03:13:07;28.7;;;26.7;;
79346;SDS011;68815;48.810;44.482;2024-03-08T03:16:09;28.7;;;26.4;;
79346;SDS011;68815;48.810;44.482;2024-03-08T03:19:11;29;;;26.8;;
79346;SDS011;68815;48.810;44.482;2024-03-08T03:22:13;26.9;;;24.9;;
79346;SDS011;68815;48.810;44.482;2024-03-08T03:25:14;27.9;;;25.8;;
79346;SDS011;68815;48.810;44.482;2024-03-08T03:28:17;27.4;;;25.3;;
79346;SDS011;68815;48.810;44.482;2024-03-08T03:31:19;27;;;25.2;;
79346;SDS011;68815;48.810;44.482;2024-03-08T03:34:21;29.5;;;27.3;;
79346;SDS011;68815;48.810;44.482;2024-03-08T03:37:23;29.6;;;27.5;;
79346;SDS011;68815;48.810;44.482;2024-03-08T03:40:26;26.4;;;24.5;;
79346;SDS011;68815;48.810;44.482;2024-03-08T03:43:28;29.5;;;27.4;;
79346;SDS011;68815;48.810;44.482;2024-03-08T03:46:31;26.2;;;24.4;;
79346;SDS011;68815;48.810;44.482;2024-03-08T03:49:32;26.9;;;24.9;;
79346;SDS011;68815;48.810;44.482;2024-03-08T03:52:34;26.6;;;24.8;;
79346;SDS011;68815;48.810;44.482;2024-03-08T03:55:36;28.1;;;25.7;;
79346;SDS011;68815;48.810;44.482;2024-03-08T03:58:38;26.5;;;24.3;;
79346;SDS011;68815;48.810;44.482;2024-03-08T04:01:42;26;;;23.7;;
79346;SDS011;68815;48.810;44.482;2024-03-08T04:04:44;25.5;;;23.7;;
79346;SDS011;68815;48.810;44.482;2024-03-08T04:07:46;26.7;;;24.8;;
79346;SDS011;68815;48.810;44.482;2024-03-08T04:10:47;26.9;;;24.8;;
79346;SDS011;68815;48.810;44.482;2024-03-08T04:13:49;28.2;;;26.1;;
79346;SDS011;68815;48.810;44.482;2024-03-08T04:16:51;25.1;;;23.3;;
79346;SDS011;68815;48.810;44.482;2024-03-08T04:19:53;24.7;;;22.6;;
79346;SDS011;68815;48.810;44.482;2024-03-08T04:22:55;25.7;;;23.4;;
79346;SDS011;68815;48.810;44.482;2024-03-08T04:25:57;25.6;;;23.8;;
79346;SDS011;68815;48.810;44.482;2024-03-08T04:28:59;25.7;;;23.9;;
79346;SDS011;68815;48.810;44.482;2024-03-08T04:32:02;26.5;;;24.7;;
79346;SDS011;68815;48.810;44.482;2024-03-08T04:35:04;25.2;;;23.5;;
79346;SDS011;68815;48.810;44.482;2024-03-08T04:38:07;25.7;;;23.8;;
79346;SDS011;68815;48.810;44.482;2024-03-08T04:41:09;25.9;;;24;;
79346;SDS011;68815;48.810;44.482;2024-03-08T04:44:11;22.6;;;21;;
79346;SDS011;68815;48.810;44.482;2024-03-08T04:47:13;23.5;;;21.4;;
79346;SDS011;68815;48.810;44.482;2024-03-08T04:50:15;23.4;;;21.7;;
79346;SDS011;68815;48.810;44.482;2024-03-08T04:53:16;20.5;;;18.9;;
79346;SDS011;68815;48.810;44.482;2024-03-08T04:56:18;21;;;19.2;;
79346;SDS011;68815;48.810;44.482;2024-03-08T04:59:20;17;;;15.5;;
79346;SDS011;68815;48.810;44.482;2024-03-08T05:02:22;15.3;;;13.7;;
79346;SDS011;68815;48.810;44.482;2024-03-08T05:05:24;11.5;;;10.4;;
79346;SDS011;68815;48.810;44.482;2024-03-08T05:08:26;11.5;;;6;;
79346;SDS011;68815;48.810;44.482;2024-03-08T05:11:28;11.1;;;5;;
79346;SDS011;68815;48.810;44.482;2024-03-08T05:14:30;9.3;;;4.8;;
79346;SDS011;68815;48.810;44.482;2024-03-08T05:17:32;9.8;;;4.3;;
79346;SDS011;68815;48.810;44.482;2024-03-08T05:20:33;9.4;;;4.1;;
79346;SDS011;68815;48.810;44.482;2024-03-08T05:23:35;9.1;;;4.4;;
79346;SDS011;68815;48.810;44.482;2024-03-08T05:26:37;10;;;4.1;;
79346;SDS011;68815;48.810;44.482;2024-03-08T05:29:39;12.4;;;4.5;;
79346;SDS011;68815;48.810;44.482;2024-03-08T05:32:42;14.5;;;4.9;;
79346;SDS011;68815;48.810;44.482;2024-03-08T05:35:44;10.2;;;4.5;;
79346;SDS011;68815;48.810;44.482;2024-03-08T05:38:45;9.6;;;4.7;;
79346;SDS011;68815;48.810;44.482;2024-03-08T05:41:47;9.7;;;4.4;;
79346;SDS011;68815;48.810;44.482;2024-03-08T05:44:49;10;;;4.4;;
79346;SDS011;68815;48.810;44.482;2024-03-08T05:47:51;10.7;;;4.9;;
79346;SDS011;68815;48.810;44.482;2024-03-08T05:50:52;11.2;;;5.3;;
79346;SDS011;68815;48.810;44.482;2024-03-08T05:53:54;9.9;;;4.7;;
79346;SDS011;68815;48.810;44.482;2024-03-08T05:56:56;10.3;;;5;;
79346;SDS011;68815;48.810;44.482;2024-03-08T05:59:57;9.9;;;5.1;;
79346;SDS011;68815;48.810;44.482;2024-03-08T06:02:59;11;;;5;;
79346;SDS011;68815;48.810;44.482;2024-03-08T06:06:01;11.5;;;6.2;;
79346;SDS011;68815;48.810;44.482;2024-03-08T06:09:02;10.6;;;6.3;;
79346;SDS011;68815;48.810;44.482;2024-03-08T06:12:05;11.1;;;5.9;;
79346;SDS011;68815;48.810;44.482;2024-03-08T06:15:07;12.6;;;6.2;;
79346;SDS011;68815;48.810;44.482;2024-03-08T06:18:09;13.6;;;6.4;;
79346;SDS011;68815;48.810;44.482;2024-03-08T06:21:11;13.3;;;5.7;;
79346;SDS011;68815;48.810;44.482;2024-03-08T06:24:13;9.6;;;4.9;;
79346;SDS011;68815;48.810;44.482;2024-03-08T06:27:15;11;;;4.7;;
79346;SDS011;68815;48.810;44.482;2024-03-08T06:30:18;9.2;;;4.8;;
79346;SDS011;68815;48.810;44.482;2024-03-08T06:33:20;8.5;;;4.5;;
79346;SDS011;68815;48.810;44.482;2024-03-08T06:36:22;9;;;4.9;;
79346;SDS011;68815;48.810;44.482;2024-03-08T06:39:24;8.2;;;3.7;;
79346;SDS011;68815;48.810;44.482;2024-03-08T06:42:26;8.7;;;4.1;;
79346;SDS011;68815;48.810;44.482;2024-03-08T06:45:28;8.1;;;4.1;;
79346;SDS011;68815;48.810;44.482;2024-03-08T06:48:30;7.3;;;4;;
79346;SDS011;68815;48.810;44.482;2024-03-08T06:51:31;8.3;;;3.9;;
79346;SDS011;68815;48.810;44.482;2024-03-08T06:54:33;9;;;4.5;;
79346;SDS011;68815;48.810;44.482;2024-03-08T06:57:35;9.4;;;4.4;;
79346;SDS011;68815;48.810;44.482;2024-03-08T07:00:37;13.2;;;4.6;;
79346;SDS011;68815;48.810;44.482;2024-03-08T07:03:39;8;;;4.1;;
79346;SDS011;68815;48.810;44.482;2024-03-08T07:06:40;9.6;;;4.2;;
79346;SDS011;68815;48.810;44.482;2024-03-08T07:09:45;8.2;;;4.4;;
79346;SDS011;68815;48.810;44.482;2024-03-08T07:12:47;8.8;;;4.9;;
79346;SDS011;68815;48.810;44.482;2024-03-08T07:15:48;9.4;;;4.9;;
79346;SDS011;68815;48.810;44.482;2024-03-08T07:18:50;11.4;;;4.9;;
79346;SDS011;68815;48.810;44.482;2024-03-08T07:21:52;9.6;;;4.9;;
79346;SDS011;68815;48.810;44.482;2024-03-08T07:24:54;10.4;;;5;;
79346;SDS011;68815;48.810;44.482;2024-03-08T07:27:56;10.8;;;5.3;;
79346;SDS011;68815;48.810;44.482;2024-03-08T07:30:58;10;;;5.1;;
79346;SDS011;68815;48.810;44.482;2024-03-08T07:34:01;10.3;;;5.3;;
79346;SDS011;68815;48.810;44.482;2024-03-08T07:37:07;11.2;;;4.9;;
79346;SDS011;68815;48.810;44.482;2024-03-08T07:40:10;10.4;;;5.6;;
79346;SDS011;68815;48.810;44.482;2024-03-08T07:43:12;10.8;;;4.6;;
79346;SDS011;68815;48.810;44.482;2024-03-08T07:46:14;10.4;;;5.5;;
79346;SDS011;68815;48.810;44.482;2024-03-08T07:49:16;11.6;;;4.8;;
79346;SDS011;68815;48.810;44.482;2024-03-08T07:52:18;9.6;;;5;;
79346;SDS011;68815;48.810;44.482;2024-03-08T07:55:20;11.6;;;5.4;;
79346;SDS011;68815;48.810;44.482;2024-03-08T07:58:21;12.4;;;5.8;;
79346;SDS011;68815;48.810;44.482;2024-03-08T08:01:23;11.8;;;5.2;;
79346;SDS011;68815;48.810;44.482;2024-03-08T08:04:25;10;;;5.4;;
79346;SDS011;68815;48.810;44.482;2024-03-08T08:07:27;12.4;;;5.8;;
79346;SDS011;68815;48.810;44.482;2024-03-08T08:10:28;9.7;;;5.3;;
79346;SDS011;68815;48.810;44.482;2024-03-08T08:13:30;11.7;;;5.4;;
79346;SDS011;68815;48.810;44.482;2024-03-08T08:16:32;15.6;;;7.7;;
79346;SDS011;68815;48.810;44.482;2024-03-08T08:19:34;20.8;;;8.7;;
79346;SDS011;68815;48.810;44.482;2024-03-08T08:22:36;11.7;;;6.1;;
79346;SDS011;68815;48.810;44.482;2024-03-08T08:25:37;13;;;6.4;;
79346;SDS011;68815;48.810;44.482;2024-03-08T08:28:40;16.6;;;6.6;;
79346;SDS011;68815;48.810;44.482;2024-03-08T08:31:42;14;;;6.5;;
79346;SDS011;68815;48.810;44.482;2024-03-08T08:34:44;13.6;;;6.5;;
79346;SDS011;68815;48.810;44.482;2024-03-08T08:37:46;14.5;;;5.9;;
79346;SDS011;68815;48.810;44.482;2024-03-08T08:40:48;12.2;;;5.8;;
79346;SDS011;68815;48.810;44.482;2024-03-08T08:43:50;11.9;;;5.8;;
79346;SDS011;68815;48.810;44.482;2024-03-08T08:46:52;12.8;;;6.2;;
79346;SDS011;68815;48.810;44.482;2024-03-08T08:49:54;12.6;;;5.8;;
79346;SDS011;68815;48.810;44.482;2024-03-08T08:52:56;10.6;;;5.4;;
79346;SDS011;68815;48.810;44.482;2024-03-08T08:55:58;13.4;;;5.8;;
79346;SDS011;68815;48.810;44.482;2024-03-08T08:59:00;13.6;;;5.5;;
79346;SDS011;68815;48.810;44.482;2024-03-08T09:02:02;12.4;;;5.4;;
79346;SDS011;68815;48.810;44.482;2024-03-08T09:05:04;11.8;;;5.6;;
79346;SDS011;68815;48.810;44.482;2024-03-08T09:08:06;10.8;;;5.2;;
79346;SDS011;68815;48.810;44.482;2024-03-08T09:11:08;9.3;;;4.5;;
79346;SDS011;68815;48.810;44.482;2024-03-08T09:14:10;9.7;;;4.4;;
79346;SDS011;68815;48.810;44.482;2024-03-08T09:17:12;8.1;;;4.3;;
79346;SDS011;68815;48.810;44.482;2024-03-08T09:20:14;9.1;;;4.5;;
79346;SDS011;68815;48.810;44.482;2024-03-08T09:23:16;8.7;;;4.4;;
79346;SDS011;68815;48.810;44.482;2024-03-08T09:26:23;11;;;5.2;;
79346;SDS011;68815;48.810;44.482;2024-03-08T09:29:24;10.1;;;4.3;;
79346;SDS011;68815;48.810;44.482;2024-03-08T09:32:26;8.3;;;4;;
79346;SDS011;68815;48.810;44.482;2024-03-08T09:35:28;8;;;3.8;;
79346;SDS011;68815;48.810;44.482;2024-03-08T09:38:30;8.9;;;4;;
79346;SDS011;68815;48.810;44.482;2024-03-08T09:41:32;8.4;;;4.2;;
79346;SDS011;68815;48.810;44.482;2024-03-08T09:44:33;10.7;;;4.9;;
79346;SDS011;68815;48.810;44.482;2024-03-08T09:47:36;10.8;;;4.5;;
79346;SDS011;68815;48.810;44.482;2024-03-08T09:50:39;12.1;;;5.1;;
79346;SDS011;68815;48.810;44.482;2024-03-08T09:53:41;10.1;;;4.6;;
79346;SDS011;68815;48.810;44.482;2024-03-08T09:56:43;7.7;;;4.2;;
79346;SDS011;68815;48.810;44.482;2024-03-08T09:59:46;10.7;;;4.6;;
79346;SDS011;68815;48.810;44.482;2024-03-08T10:02:47;10.4;;;4.3;;
79346;SDS011;68815;48.810;44.482;2024-03-08T10:05:49;9.1;;;4;;
79346;SDS011;68815;48.810;44.482;2024-03-08T10:08:51;8.5;;;3.6;;
79346;SDS011;68815;48.810;44.482;2024-03-08T10:11:54;8.1;;;3.6;;
79346;SDS011;68815;48.810;44.482;2024-03-08T10:14:58;9.4;;;4.4;;
79346;SDS011;68815;48.810;44.482;2024-03-08T10:18:00;9.3;;;4.5;;
79346;SDS011;68815;48.810;44.482;2024-03-08T10:21:03;10.7;;;4.8;;
79346;SDS011;68815;48.810;44.482;2024-03-08T10:24:06;9.3;;;4.2;;
79346;SDS011;68815;48.810;44.482;2024-03-08T10:27:13;9.3;;;4.1;;
79346;SDS011;68815;48.810;44.482;2024-03-08T10:30:15;9.3;;;4.2;;
79346;SDS011;68815;48.810;44.482;2024-03-08T10:33:17;9.9;;;4.2;;
79346;SDS011;68815;48.810;44.482;2024-03-08T10:36:19;7.3;;;3.5;;
79346;SDS011;68815;48.810;44.482;2024-03-08T10:39:22;7.9;;;3.9;;
79346;SDS011;68815;48.810;44.482;2024-03-08T10:42:27;8.5;;;3.9;;
79346;SDS011;68815;48.810;44.482;2024-03-08T10:45:31;9.8;;;3.9;;
79346;SDS011;68815;48.810;44.482;2024-03-08T10:48:39;8.5;;;4.1;;
79346;SDS011;68815;48.810;44.482;2024-03-08T10:51:45;11.6;;;4;;
79346;SDS011;68815;48.810;44.482;2024-03-08T10:54:49;12.6;;;4.7;;
79346;SDS011;68815;48.810;44.482;2024-03-08T10:57:54;9.2;;;3.8;;
79346;SDS011;68815;48.810;44.482;2024-03-08T11:00:55;12;;;4.3;;
79346;SDS011;68815;48.810;44.482;2024-03-08T11:03:58;12.5;;;4.7;;
79346;SDS011;68815;48.810;44.482;2024-03-08T11:07:00;11.3;;;4;;
79346;SDS011;68815;48.810;44.482;2024-03-08T11:10:03;8.9;;;4;;
79346;SDS011;68815;48.810;44.482;2024-03-08T11:13:05;11.8;;;4.5;;
79346;SDS011;68815;48.810;44.482;2024-03-08T11:16:37;10;;;4.3;;
79346;SDS011;68815;48.810;44.482;2024-03-08T11:19:45;9.3;;;4.6;;
79346;SDS011;68815;48.810;44.482;2024-03-08T11:22:48;10;;;4.2;;
79346;SDS011;68815;48.810;44.482;2024-03-08T11:25:51;9.8;;;4.4;;
79346;SDS011;68815;48.810;44.482;2024-03-08T11:28:53;9.4;;;4.6;;
79346;SDS011;68815;48.810;44.482;2024-03-08T11:32:03;10.3;;;4.5;;
79346;SDS011;68815;48.810;44.482;2024-03-08T11:35:06;9.4;;;4.1;;
79346;SDS011;68815;48.810;44.482;2024-03-08T11:38:09;10.6;;;4.6;;
79346;SDS011;68815;48.810;44.482;2024-03-08T11:41:11;10.7;;;5;;
79346;SDS011;68815;48.810;44.482;2024-03-08T11:44:13;9.8;;;4.7;;
79346;SDS011;68815;48.810;44.482;2024-03-08T11:47:15;8.6;;;3.9;;
79346;SDS011;68815;48.810;44.482;2024-03-08T11:50:17;8.1;;;3.7;;
79346;SDS011;68815;48.810;44.482;2024-03-08T11:53:19;7.8;;;3.8;;
79346;SDS011;68815;48.810;44.482;2024-03-08T11:56:21;7.2;;;3;;
79346;SDS011;68815;48.810;44.482;2024-03-08T11:59:23;8.6;;;3.6;;
79346;SDS011;68815;48.810;44.482;2024-03-08T12:02:25;7.8;;;3.6;;
79346;SDS011;68815;48.810;44.482;2024-03-08T12:05:27;8.7;;;3.8;;
79346;SDS011;68815;48.810;44.482;2024-03-08T12:08:28;10.6;;;4.7;;
79346;SDS011;68815;48.810;44.482;2024-03-08T12:11:31;9.1;;;3.5;;
79346;SDS011;68815;48.810;44.482;2024-03-08T12:14:33;7.8;;;3.4;;
79346;SDS011;68815;48.810;44.482;2024-03-08T12:17:35;9.3;;;4;;
79346;SDS011;68815;48.810;44.482;2024-03-08T12:20:37;7.3;;;3.4;;
79346;SDS011;68815;48.810;44.482;2024-03-08T12:23:39;11.2;;;4.2;;
79346;SDS011;68815;48.810;44.482;2024-03-08T12:26:41;8.9;;;4;;
79346;SDS011;68815;48.810;44.482;2024-03-08T12:29:43;8;;;4;;
79346;SDS011;68815;48.810;44.482;2024-03-08T12:32:47;9.8;;;4.4;;
79346;SDS011;68815;48.810;44.482;2024-03-08T12:35:51;10.2;;;4.3;;
79346;SDS011;68815;48.810;44.482;2024-03-08T12:38:54;10.2;;;4.5;;
79346;SDS011;68815;48.810;44.482;2024-03-08T12:41:56;9.8;;;4;;
79346;SDS011;68815;48.810;44.482;2024-03-08T12:44:58;10.6;;;4.2;;
79346;SDS011;68815;48.810;44.482;2024-03-08T12:48:00;9.1;;;4.2;;
79346;SDS011;68815;48.810;44.482;2024-03-08T12:51:01;9.7;;;3.8;;
79346;SDS011;68815;48.810;44.482;2024-03-08T12:54:03;8.1;;;3.6;;
79346;SDS011;68815;48.810;44.482;2024-03-08T12:57:05;8.1;;;3.6;;
79346;SDS011;68815;48.810;44.482;2024-03-08T13:00:07;7.9;;;3.6;;
79346;SDS011;68815;48.810;44.482;2024-03-08T13:03:09;9.1;;;4.4;;
79346;SDS011;68815;48.810;44.482;2024-03-08T13:06:11;9.5;;;4.1;;
79346;SDS011;68815;48.810;44.482;2024-03-08T13:09:13;8.9;;;4.2;;
79346;SDS011;68815;48.810;44.482;2024-03-08T13:12:15;10;;;4.4;;
79346;SDS011;68815;48.810;44.482;2024-03-08T13:15:17;8.3;;;4.1;;
79346;SDS011;68815;48.810;44.482;2024-03-08T13:18:18;10.1;;;4.1;;
79346;SDS011;68815;48.810;44.482;2024-03-08T13:21:20;11.4;;;4.4;;
79346;SDS011;68815;48.810;44.482;2024-03-08T13:24:22;10.5;;;4.2;;
79346;SDS011;68815;48.810;44.482;2024-03-08T13:27:23;10.6;;;4.2;;
79346;SDS011;68815;48.810;44.482;2024-03-08T13:30:25;9.4;;;3.9;;
79346;SDS011;68815;48.810;44.482;2024-03-08T13:33:27;8.6;;;3.8;;
79346;SDS011;68815;48.810;44.482;2024-03-08T13:36:30;10;;;4.1;;
79346;SDS011;68815;48.810;44.482;2024-03-08T13:39:31;10.9;;;4.7;;
79346;SDS011;68815;48.810;44.482;2024-03-08T13:42:33;11.4;;;4.8;;
79346;SDS011;68815;48.810;44.482;2024-03-08T13:45:35;11.4;;;5.1;;
79346;SDS011;68815;48.810;44.482;2024-03-08T13:48:38;9.3;;;4.4;;
79346;SDS011;68815;48.810;44.482;2024-03-08T13:51:40;10.7;;;4.9;;
79346;SDS011;68815;48.810;44.482;2024-03-08T13:54:42;10.9;;;4.2;;
79346;SDS011;68815;48.810;44.482;2024-03-08T13:57:44;9.3;;;3.9;;
79346;SDS011;68815;48.810;44.482;2024-03-08T14:00:46;9.3;;;3.9;;
79346;SDS011;68815;48.810;44.482;2024-03-08T14:03:48;10.5;;;4.6;;
79346;SDS011;68815;48.810;44.482;2024-03-08T14:06:49;9.9;;;4.2;;
79346;SDS011;68815;48.810;44.482;2024-03-08T14:09:51;11.3;;;4.8;;
79346;SDS011;68815;48.810;44.482;2024-03-08T14:12:53;11.4;;;4.7;;
79346;SDS011;68815;48.810;44.482;2024-03-08T14:15:55;9.7;;;4.4;;
79346;SDS011;68815;48.810;44.482;2024-03-08T14:18:57;12.4;;;4.7;;
79346;SDS011;68815;48.810;44.482;2024-03-08T14:21:59;9.6;;;4.5;;
79346;SDS011;68815;48.810;44.482;2024-03-08T14:25:00;11.2;;;4.7;;
79346;SDS011;68815;48.810;44.482;2024-03-08T14:28:02;10.9;;;4.4;;
79346;SDS011;68815;48.810;44.482;2024-03-08T14:31:04;10.8;;;5.1;;
79346;SDS011;68815;48.810;44.482;2024-03-08T14:34:06;12.5;;;5.4;;
79346;SDS011;68815;48.810;44.482;2024-03-08T14:37:07;11.7;;;5.4;;
79346;SDS011;68815;48.810;44.482;2024-03-08T14:40:10;10.7;;;5.3;;
79346;SDS011;68815;48.810;44.482;2024-03-08T14:43:26;12.4;;;5.4;;
79346;SDS011;68815;48.810;44.482;2024-03-08T14:46:28;14.3;;;5.5;;
79346;SDS011;68815;48.810;44.482;2024-03-08T14:49:30;11.6;;;5.7;;
79346;SDS011;68815;48.810;44.482;2024-03-08T14:52:31;13.6;;;5.5;;
79346;SDS011;68815;48.810;44.482;2024-03-08T14:55:33;11.2;;;5.2;;
79346;SDS011;68815;48.810;44.482;2024-03-08T14:58:35;12.6;;;5.2;;
79346;SDS011;68815;48.810;44.482;2024-03-08T15:01:37;13.1;;;5.3;;
79346;SDS011;68815;48.810;44.482;2024-03-08T15:04:38;12.7;;;4.5;;
79346;SDS011;68815;48.810;44.482;2024-03-08T15:07:40;12.2;;;5.4;;
79346;SDS011;68815;48.810;44.482;2024-03-08T15:10:42;12.2;;;5.3;;
79346;SDS011;68815;48.810;44.482;2024-03-08T15:13:44;14.2;;;6.1;;
79346;SDS011;68815;48.810;44.482;2024-03-08T15:16:45;12.4;;;5;;
79346;SDS011;68815;48.810;44.482;2024-03-08T15:19:48;13.2;;;5.7;;
79346;SDS011;68815;48.810;44.482;2024-03-08T15:22:50;12.1;;;5.5;;
79346;SDS011;68815;48.810;44.482;2024-03-08T15:25:53;12.9;;;5.4;;
79346;SDS011;68815;48.810;44.482;2024-03-08T15:28:54;11;;;5.3;;
79346;SDS011;68815;48.810;44.482;2024-03-08T15:31:56;11.6;;;5.6;;
79346;SDS011;68815;48.810;44.482;2024-03-08T15:34:58;13.3;;;5.6;;
79346;SDS011;68815;48.810;44.482;2024-03-08T15:38:00;11;;;5.4;;
79346;SDS011;68815;48.810;44.482;2024-03-08T15:41:02;12.4;;;5.8;;
79346;SDS011;68815;48.810;44.482;2024-03-08T15:44:04;15.1;;;6.2;;
79346;SDS011;68815;48.810;44.482;2024-03-08T15:47:06;12.1;;;5.7;;
79346;SDS011;68815;48.810;44.482;2024-03-08T15:50:08;12.2;;;5.9;;
79346;SDS011;68815;48.810;44.482;2024-03-08T15:53:10;12.5;;;5.3;;
79346;SDS011;68815;48.810;44.482;2024-03-08T15:56:12;12.7;;;5.2;;
79346;SDS011;68815;48.810;44.482;2024-03-08T15:59:14;13.7;;;5.5;;
79346;SDS011;68815;48.810;44.482;2024-03-08T16:02:15;12.6;;;5.4;;
79346;SDS011;68815;48.810;44.482;2024-03-08T16:05:23;11.9;;;5.6;;
79346;SDS011;68815;48.810;44.482;2024-03-08T16:08:25;11.9;;;5.6;;
79346;SDS011;68815;48.810;44.482;2024-03-08T16:11:27;12.2;;;5.5;;
79346;SDS011;68815;48.810;44.482;2024-03-08T16:14:29;13.8;;;6.1;;
79346;SDS011;68815;48.810;44.482;2024-03-08T16:17:31;12.8;;;6;;
79346;SDS011;68815;48.810;44.482;2024-03-08T16:20:33;14;;;6.3;;
79346;SDS011;68815;48.810;44.482;2024-03-08T16:23:34;12.3;;;5.8;;
79346;SDS011;68815;48.810;44.482;2024-03-08T16:26:37;13.2;;;5.6;;
79346;SDS011;68815;48.810;44.482;2024-03-08T16:29:38;13;;;5.5;;
79346;SDS011;68815;48.810;44.482;2024-03-08T16:32:41;11.8;;;5.3;;
79346;SDS011;68815;48.810;44.482;2024-03-08T16:35:43;11;;;5.1;;
79346;SDS011;68815;48.810;44.482;2024-03-08T16:38:45;12.2;;;4.7;;
79346;SDS011;68815;48.810;44.482;2024-03-08T16:41:49;13;;;5.4;;
79346;SDS011;68815;48.810;44.482;2024-03-08T16:44:51;11.3;;;5.1;;
79346;SDS011;68815;48.810;44.482;2024-03-08T16:47:53;12;;;5.2;;
79346;SDS011;68815;48.810;44.482;2024-03-08T16:50:54;12.1;;;5.3;;
79346;SDS011;68815;48.810;44.482;2024-03-08T16:53:56;13.1;;;5.3;;
79346;SDS011;68815;48.810;44.482;2024-03-08T16:56:58;11.2;;;5.4;;
79346;SDS011;68815;48.810;44.482;2024-03-08T17:00:00;11.7;;;5.4;;
79346;SDS011;68815;48.810;44.482;2024-03-08T17:03:02;10.7;;;5.1;;
79346;SDS011;68815;48.810;44.482;2024-03-08T17:06:05;11.7;;;5.1;;
79346;SDS011;68815;48.810;44.482;2024-03-08T17:09:06;12.6;;;5.4;;
79346;SDS011;68815;48.810;44.482;2024-03-08T17:12:08;11.7;;;5;;
79346;SDS011;68815;48.810;44.482;2024-03-08T17:15:10;10.9;;;5.1;;
79346;SDS011;68815;48.810;44.482;2024-03-08T17:18:12;13.8;;;5.6;;
79346;SDS011;68815;48.810;44.482;2024-03-08T17:21:14;13.1;;;5.6;;
79346;SDS011;68815;48.810;44.482;2024-03-08T17:24:15;11.3;;;5.2;;
79346;SDS011;68815;48.810;44.482;2024-03-08T17:27:17;12.7;;;5.4;;
79346;SDS011;68815;48.810;44.482;2024-03-08T17:30:20;15.5;;;5.5;;
79346;SDS011;68815;48.810;44.482;2024-03-08T17:33:22;14.6;;;5.4;;
79346;SDS011;68815;48.810;44.482;2024-03-08T17:36:23;12;;;4.9;;
79346;SDS011;68815;48.810;44.482;2024-03-08T17:39:25;11.2;;;5.1;;
79346;SDS011;68815;48.810;44.482;2024-03-08T17:42:26;12.9;;;5;;
79346;SDS011;68815;48.810;44.482;2024-03-08T17:45:28;11.6;;;5.2;;
79346;SDS011;68815;48.810;44.482;2024-03-08T17:48:30;12;;;4.9;;
79346;SDS011;68815;48.810;44.482;2024-03-08T17:51:32;10.2;;;5.3;;
79346;SDS011;68815;48.810;44.482;2024-03-08T17:54:34;13.4;;;5.5;;
79346;SDS011;68815;48.810;44.482;2024-03-08T17:57:35;10.6;;;4.9;;
79346;SDS011;68815;48.810;44.482;2024-03-08T18:00:37;12.2;;;5.1;;
79346;SDS011;68815;48.810;44.482;2024-03-08T18:03:39;11.8;;;5.2;;
79346;SDS011;68815;48.810;44.482;2024-03-08T18:06:41;11.8;;;5.5;;
79346;SDS011;68815;48.810;44.482;2024-03-08T18:09:43;12.9;;;5.5;;
79346;SDS011;68815;48.810;44.482;2024-03-08T18:12:45;12.6;;;5.7;;
79346;SDS011;68815;48.810;44.482;2024-03-08T18:15:47;12.5;;;4.9;;
79346;SDS011;68815;48.810;44.482;2024-03-08T18:18:49;12.8;;;5;;
79346;SDS011;68815;48.810;44.482;2024-03-08T18:21:51;11.8;;;5;;
79346;SDS011;68815;48.810;44.482;2024-03-08T18:24:53;9.3;;;4.6;;